createdAt,value
2023-03-02T00:00:41.006Z,6.63
2023-03-02T00:03:18.279Z,6.62
2023-03-02T00:05:49.744Z,6.58
2023-03-02T00:08:18.618Z,6.46
2023-03-02T00:10:45.612Z,6.27
2023-03-02T00:13:14.658Z,5.88
2023-03-02T00:15:41.729Z,5.99
2023-03-02T00:18:09.091Z,5.97
2023-03-02T00:20:37.631Z,6.01
2023-03-02T00:23:04.936Z,6.12
2023-03-02T00:25:31.979Z,6.06
2023-03-02T00:27:59.330Z,6.22
2023-03-02T00:30:26.492Z,6.22
2023-03-02T00:32:54.076Z,6.20
2023-03-02T00:35:21.177Z,6.08
2023-03-02T00:37:49.948Z,5.92
2023-03-02T00:40:17.486Z,5.76
2023-03-02T00:42:46.592Z,5.87
2023-03-02T00:45:13.579Z,5.66
2023-03-02T00:47:42.182Z,5.83
2023-03-02T00:50:10.860Z,5.73
2023-03-02T00:52:38.246Z,5.62
2023-03-02T00:55:07.887Z,5.46
2023-03-02T00:57:35.695Z,5.43
2023-03-02T01:00:02.769Z,5.41
2023-03-02T01:02:30.259Z,5.47
2023-03-02T01:04:57.456Z,5.54
2023-03-02T01:07:28.507Z,5.57
2023-03-02T01:09:55.688Z,5.60
2023-03-02T01:12:24.515Z,5.62
2023-03-02T01:14:51.661Z,5.64
2023-03-02T01:17:19.344Z,5.64
2023-03-02T01:19:46.748Z,5.64
2023-03-02T01:22:14.460Z,5.65
2023-03-02T01:24:41.480Z,5.51
2023-03-02T01:27:08.858Z,5.70
2023-03-02T01:29:38.021Z,5.62
2023-03-02T01:32:06.014Z,5.73
2023-03-02T01:34:33.030Z,5.81
2023-03-02T01:37:00.405Z,5.88
2023-03-02T01:39:27.273Z,5.92
2023-03-02T01:41:54.899Z,5.92
2023-03-02T01:44:42.930Z,5.99
2023-03-02T01:47:14.708Z,6.03
2023-03-02T01:49:47.050Z,6.08
2023-03-02T01:52:15.717Z,6.13
2023-03-02T01:54:43.676Z,6.19
2023-03-02T01:57:11.707Z,6.18
2023-03-02T01:59:41.504Z,6.30
2023-03-02T02:02:11.497Z,6.28
2023-03-02T02:04:42.833Z,6.25
2023-03-02T02:07:10.204Z,6.31
2023-03-02T02:09:40.469Z,6.38
2023-03-02T02:12:13.811Z,6.28
2023-03-02T02:14:42.750Z,6.42
2023-03-02T02:17:11.653Z,6.42
2023-03-02T02:19:48.201Z,6.37
2023-03-02T02:22:25.480Z,6.40
2023-03-02T02:24:58.592Z,6.38
2023-03-02T02:27:33.761Z,6.35
2023-03-02T02:30:04.605Z,6.30
2023-03-02T02:32:36.410Z,6.28
2023-03-02T02:35:07.831Z,6.28
2023-03-02T02:37:40.063Z,6.26
2023-03-02T02:40:13.904Z,6.23
2023-03-02T02:42:45.958Z,6.25
2023-03-02T02:45:21.123Z,6.22
2023-03-02T02:47:49.496Z,6.25
2023-03-02T02:50:22.833Z,6.22
2023-03-02T02:52:57.813Z,6.22
2023-03-02T02:55:26.742Z,6.22
2023-03-02T02:57:59.478Z,6.18
2023-03-02T03:00:27.448Z,6.16
2023-03-02T03:03:02.500Z,6.15
2023-03-02T03:05:29.549Z,6.09
2023-03-02T03:08:07.856Z,6.06
2023-03-02T03:10:40.260Z,6.14
2023-03-02T03:13:11.455Z,6.22
2023-03-02T03:15:38.627Z,6.31
2023-03-02T03:18:06.096Z,6.33
2023-03-02T03:20:33.242Z,6.40
2023-03-02T03:23:00.930Z,6.41
2023-03-02T03:25:28.142Z,6.43
2023-03-02T03:27:55.432Z,6.46
2023-03-02T03:30:23.963Z,6.47
2023-03-02T03:32:51.225Z,6.45
2023-03-02T03:35:18.548Z,6.43
2023-03-02T03:37:46.124Z,6.40
2023-03-02T03:40:13.100Z,6.38
2023-03-02T03:42:40.599Z,6.39
2023-03-02T03:45:08.982Z,6.38
2023-03-02T03:47:37.828Z,6.33
2023-03-02T03:50:05.441Z,6.30
2023-03-02T03:52:33.097Z,6.31
2023-03-02T03:55:01.438Z,5.98
2023-03-02T03:57:29.102Z,6.12
2023-03-02T03:59:56.307Z,6.20
2023-03-02T04:02:23.840Z,6.18
2023-03-02T04:04:52.254Z,6.16
2023-03-02T04:07:20.027Z,6.15
2023-03-02T04:09:47.183Z,6.11
2023-03-02T04:12:14.709Z,6.09
2023-03-02T04:14:41.905Z,6.07
2023-03-02T04:17:09.313Z,6.03
2023-03-02T04:19:37.426Z,5.98
2023-03-02T04:22:06.213Z,5.96
2023-03-02T04:24:33.515Z,5.98
2023-03-02T04:27:00.895Z,5.90
2023-03-02T04:29:28.088Z,6.06
2023-03-02T04:31:55.492Z,6.08
2023-03-02T04:34:25.476Z,6.03
2023-03-02T04:36:53.786Z,5.89
2023-03-02T04:39:22.999Z,5.96
2023-03-02T04:41:50.984Z,5.86
2023-03-02T04:44:19.130Z,5.92
2023-03-02T04:46:46.862Z,5.89
2023-03-02T04:49:14.729Z,5.88
2023-03-02T04:51:44.126Z,5.84
2023-03-02T04:54:15.450Z,5.81
2023-03-02T04:56:45.164Z,5.75
2023-03-02T04:59:12.095Z,5.74
2023-03-02T05:01:41.545Z,5.64
2023-03-02T05:04:08.694Z,5.62
2023-03-02T05:06:36.119Z,5.64
2023-03-02T05:09:04.820Z,5.67
2023-03-02T05:11:32.943Z,5.71
2023-03-02T05:14:03.821Z,5.72
2023-03-02T05:16:35.005Z,5.73
2023-03-02T05:19:07.203Z,5.63
2023-03-02T05:21:34.971Z,5.78
2023-03-02T05:24:03.225Z,5.79
2023-03-02T05:26:31.264Z,5.82
2023-03-02T05:28:58.654Z,5.88
2023-03-02T05:31:35.090Z,5.93
2023-03-02T05:34:03.046Z,6.14
2023-03-02T05:36:30.865Z,6.21
2023-03-02T05:38:58.410Z,6.21
2023-03-02T05:41:26.285Z,6.34
2023-03-02T05:43:54.171Z,6.54
2023-03-02T05:46:22.176Z,6.77
2023-03-02T05:48:50.665Z,7.04
2023-03-02T05:51:18.013Z,7.27
2023-03-02T05:53:45.081Z,7.40
2023-03-02T05:56:12.609Z,7.63
2023-03-02T05:58:39.790Z,7.89
2023-03-02T06:01:12.570Z,7.82
2023-03-02T06:03:42.205Z,7.95
2023-03-02T06:06:14.028Z,8.29
2023-03-02T06:08:42.773Z,8.70
2023-03-02T06:11:11.173Z,9.04
2023-03-02T06:13:38.381Z,9.36
2023-03-02T06:16:06.268Z,9.57
2023-03-02T06:18:33.568Z,9.50
2023-03-02T06:21:01.048Z,9.87
2023-03-02T06:23:29.588Z,8.75
2023-03-02T06:25:58.208Z,8.14
2023-03-02T06:28:25.550Z,7.32
2023-03-02T06:30:53.677Z,6.25
2023-03-02T06:33:21.442Z,6.49
2023-03-02T06:35:50.358Z,7.10
2023-03-02T06:38:17.830Z,7.45
2023-03-02T06:40:46.966Z,7.22
2023-03-02T06:43:14.238Z,7.20
2023-03-02T06:45:41.732Z,7.14
2023-03-02T06:48:08.985Z,6.69
2023-03-02T06:50:36.722Z,6.50
2023-03-02T06:53:03.779Z,7.08
2023-03-02T06:55:31.046Z,7.45
2023-03-02T06:57:59.383Z,7.87
2023-03-02T07:00:28.334Z,8.08
2023-03-02T07:02:56.245Z,8.30
2023-03-02T07:05:24.877Z,8.48
2023-03-02T07:07:52.560Z,8.48
2023-03-02T07:10:21.487Z,8.48
2023-03-02T07:12:48.469Z,8.79
2023-03-02T07:15:17.520Z,8.51
2023-03-02T07:17:45.262Z,8.70
2023-03-02T07:20:14.991Z,8.56
2023-03-02T07:22:43.208Z,8.65
2023-03-02T07:25:11.794Z,8.97
2023-03-02T07:27:39.941Z,9.24
2023-03-02T07:30:09.160Z,8.84
2023-03-02T07:32:37.639Z,9.33
2023-03-02T07:35:05.511Z,9.38
2023-03-02T07:37:32.658Z,9.31
2023-03-02T07:40:00.948Z,9.27
2023-03-02T07:42:28.413Z,9.67
2023-03-02T07:44:55.855Z,9.90
2023-03-02T07:47:23.501Z,10.06
2023-03-02T07:49:52.650Z,10.19
2023-03-02T07:52:19.703Z,10.36
2023-03-02T07:54:47.320Z,10.41
2023-03-02T07:57:16.423Z,10.42
2023-03-02T07:59:44.087Z,10.42
2023-03-02T08:02:14.449Z,10.07
2023-03-02T08:04:41.853Z,10.46
2023-03-02T08:07:10.348Z,10.38
2023-03-02T08:09:38.547Z,10.53
2023-03-02T08:12:08.290Z,10.45
2023-03-02T08:14:36.073Z,10.64
2023-03-02T08:17:04.471Z,10.60
2023-03-02T08:19:32.012Z,10.45
2023-03-02T08:22:00.814Z,10.44
2023-03-02T08:24:30.007Z,10.44
2023-03-02T08:27:00.869Z,10.20
2023-03-02T08:29:28.669Z,10.63
2023-03-02T08:32:01.496Z,10.70
2023-03-02T08:34:29.219Z,10.23
2023-03-02T08:36:57.588Z,10.53
2023-03-02T08:39:31.310Z,10.43
2023-03-02T08:41:59.925Z,10.69
2023-03-02T08:44:27.455Z,10.72
2023-03-02T08:46:55.115Z,10.73
2023-03-02T08:49:22.414Z,10.74
2023-03-02T08:51:53.710Z,10.70
2023-03-02T08:54:21.653Z,10.75
2023-03-02T08:56:50.487Z,10.75
2023-03-02T08:59:20.255Z,10.82
2023-03-02T09:01:49.724Z,9.84
2023-03-02T09:04:18.902Z,10.08
2023-03-02T09:06:54.801Z,10.88
2023-03-02T09:09:23.912Z,10.81
2023-03-02T09:11:56.461Z,10.80
2023-03-02T09:14:29.338Z,10.88
2023-03-02T09:17:00.457Z,10.89
2023-03-02T09:22:24.917Z,11.11
2023-03-02T09:24:57.436Z,11.18
2023-03-02T09:27:39.023Z,10.90
2023-03-02T09:30:08.259Z,10.98
2023-03-02T09:32:41.411Z,11.06
2023-03-02T09:35:18.872Z,11.40
2023-03-02T09:37:49.330Z,11.28
2023-03-02T09:40:24.007Z,11.53
2023-03-02T09:43:06.924Z,11.04
2023-03-02T09:45:52.358Z,11.47
2023-03-02T09:48:31.808Z,11.42
2023-03-02T09:51:16.416Z,11.03
2023-03-02T09:53:52.100Z,11.48
2023-03-02T09:56:20.416Z,11.62
2023-03-02T09:58:55.683Z,11.23
2023-03-02T10:01:34.238Z,11.42
2023-03-02T10:04:12.610Z,11.74
2023-03-02T10:06:39.877Z,11.77
2023-03-02T10:09:09.644Z,11.50
2023-03-02T10:11:45.832Z,11.92
2023-03-02T10:14:21.255Z,11.75
2023-03-02T10:16:52.756Z,11.72
2023-03-02T10:19:25.651Z,12.02
2023-03-02T10:21:58.636Z,11.71
2023-03-02T10:24:34.299Z,12.09
2023-03-02T10:27:15.535Z,12.51
2023-03-02T10:29:51.506Z,12.77
2023-03-02T10:32:21.643Z,12.46
2023-03-02T10:34:50.172Z,12.79
2023-03-02T10:37:21.650Z,12.45
2023-03-02T10:39:49.123Z,11.99
2023-03-02T10:42:20.431Z,12.43
2023-03-02T10:44:53.302Z,12.34
2023-03-02T10:47:24.581Z,12.21
2023-03-02T10:49:53.291Z,12.16
2023-03-02T10:52:22.344Z,12.14
2023-03-02T10:54:50.863Z,12.13
2023-03-02T10:57:30.320Z,11.99
2023-03-02T11:00:05.584Z,11.99
2023-03-02T11:02:38.437Z,11.75
2023-03-02T11:05:22.948Z,12.11
2023-03-02T11:07:54.907Z,12.13
2023-03-02T11:10:24.352Z,12.08
2023-03-02T11:12:53.452Z,11.89
2023-03-02T11:15:25.593Z,12.20
2023-03-02T11:18:01.463Z,12.16
2023-03-02T11:20:32.825Z,12.06
2023-03-02T11:23:11.736Z,12.14
2023-03-02T11:25:45.130Z,11.91
2023-03-02T11:28:22.510Z,12.04
2023-03-02T11:30:53.803Z,11.91
2023-03-02T11:33:25.916Z,11.85
2023-03-02T11:35:55.897Z,11.47
2023-03-02T11:38:26.586Z,11.86
2023-03-02T11:40:57.054Z,11.84
2023-03-02T11:43:24.821Z,11.86
2023-03-02T11:45:59.397Z,11.40
2023-03-02T11:48:32.715Z,11.55
2023-03-02T11:51:04.049Z,11.76
2023-03-02T11:53:41.661Z,11.82
2023-03-02T11:56:09.293Z,12.24
2023-03-02T11:58:38.536Z,12.56
2023-03-02T12:01:10.006Z,12.77
2023-03-02T12:03:40.834Z,12.71
2023-03-02T12:06:25.185Z,12.34
2023-03-02T12:08:54.843Z,12.25
2023-03-02T12:11:35.419Z,12.37
2023-03-02T12:14:05.594Z,12.63
2023-03-02T12:16:43.771Z,12.68
2023-03-02T12:19:14.266Z,12.19
2023-03-02T12:21:43.375Z,12.33
2023-03-02T12:24:25.060Z,12.21
2023-03-02T12:27:02.721Z,12.43
2023-03-02T12:29:39.961Z,12.61
2023-03-02T12:32:22.532Z,12.52
2023-03-02T12:34:55.071Z,12.30
2023-03-02T12:37:25.550Z,12.06
2023-03-02T12:40:31.852Z,12.01
2023-03-02T12:43:25.701Z,12.05
2023-03-02T12:46:19.115Z,12.33
2023-03-02T12:48:57.312Z,12.05
2023-03-02T12:51:27.394Z,12.29
2023-03-02T12:54:03.393Z,12.11
2023-03-02T12:56:30.959Z,12.23
2023-03-02T12:58:58.254Z,12.23
2023-03-02T13:01:28.059Z,12.04
2023-03-02T13:03:57.256Z,12.14
2023-03-02T13:06:29.889Z,12.02
2023-03-02T13:09:00.544Z,12.21
2023-03-02T13:11:36.355Z,12.25
2023-03-02T13:14:19.667Z,12.15
2023-03-02T13:16:58.330Z,12.15
2023-03-02T13:19:27.727Z,12.04
2023-03-02T13:21:55.247Z,12.04
2023-03-02T13:24:34.603Z,12.05
2023-03-02T13:27:06.242Z,11.84
2023-03-02T13:29:33.721Z,12.04
2023-03-02T13:32:17.012Z,12.05
2023-03-02T13:34:49.687Z,12.00
2023-03-02T13:37:22.001Z,12.09
2023-03-02T13:39:56.186Z,12.22
2023-03-02T13:42:27.335Z,12.19
2023-03-02T13:44:54.516Z,12.24
2023-03-02T13:47:23.532Z,11.96
2023-03-02T13:49:52.177Z,11.84
2023-03-02T13:52:22.676Z,12.05
2023-03-02T13:54:49.890Z,12.03
2023-03-02T13:57:22.068Z,12.08
2023-03-02T13:59:49.548Z,12.09
2023-03-02T14:02:23.976Z,12.06
2023-03-02T14:04:52.798Z,12.24
2023-03-02T14:07:21.003Z,12.55
2023-03-02T14:09:48.373Z,12.81
2023-03-02T14:12:24.833Z,12.90
2023-03-02T14:14:53.064Z,12.82
2023-03-02T14:17:23.507Z,12.63
2023-03-02T14:19:53.758Z,12.51
2023-03-02T14:22:27.542Z,12.60
2023-03-02T14:24:54.649Z,12.36
2023-03-02T14:27:29.777Z,12.18
2023-03-02T14:29:56.979Z,12.69
2023-03-02T14:32:24.507Z,12.36
2023-03-02T14:34:53.176Z,12.38
2023-03-02T14:37:22.277Z,12.57
2023-03-02T14:39:56.891Z,12.86
2023-03-02T14:42:24.633Z,12.81
2023-03-02T14:44:52.924Z,12.19
2023-03-02T14:47:21.809Z,12.20
2023-03-02T14:49:49.578Z,12.14
2023-03-02T14:52:24.769Z,12.04
2023-03-02T14:54:55.480Z,11.83
2023-03-02T14:57:28.182Z,11.85
2023-03-02T14:59:56.514Z,11.65
2023-03-02T15:02:26.936Z,11.68
2023-03-02T15:04:56.909Z,11.54
2023-03-02T15:07:27.485Z,11.48
2023-03-02T15:09:55.222Z,11.38
2023-03-02T15:12:22.374Z,11.21
2023-03-02T15:14:49.775Z,11.33
2023-03-02T15:17:17.012Z,11.23
2023-03-02T15:19:45.614Z,11.00
2023-03-02T15:22:13.426Z,10.99
2023-03-02T15:24:44.993Z,10.95
2023-03-02T15:27:12.103Z,10.93
2023-03-02T15:29:43.365Z,10.87
2023-03-02T15:32:10.577Z,10.75
2023-03-02T15:34:38.584Z,10.74
2023-03-02T15:37:05.842Z,10.65
2023-03-02T15:39:35.547Z,10.57
2023-03-02T15:42:04.491Z,10.43
2023-03-02T15:44:33.697Z,10.34
2023-03-02T15:47:01.671Z,10.22
2023-03-02T15:49:31.573Z,10.17
2023-03-02T15:51:59.284Z,10.20
2023-03-02T15:54:27.530Z,10.18
2023-03-02T15:56:55.006Z,10.05
2023-03-02T15:59:25.665Z,10.08
2023-03-02T16:01:53.710Z,10.04
2023-03-02T16:04:21.308Z,10.00
2023-03-02T16:06:48.404Z,9.91
2023-03-02T16:09:15.942Z,9.91
2023-03-02T16:11:48.771Z,9.88
2023-03-02T16:14:16.494Z,9.52
2023-03-02T16:16:46.181Z,9.58
2023-03-02T16:19:17.779Z,9.70
2023-03-02T16:21:46.192Z,9.83
2023-03-02T16:24:16.946Z,9.84
2023-03-02T16:26:45.098Z,9.64
2023-03-02T16:29:13.619Z,9.43
2023-03-02T16:31:41.822Z,9.30
2023-03-02T16:34:11.034Z,9.60
2023-03-02T16:36:40.674Z,9.47
2023-03-02T16:39:09.876Z,9.27
2023-03-02T16:41:38.384Z,9.44
2023-03-02T16:44:06.589Z,9.42
2023-03-02T16:46:36.738Z,9.48
2023-03-02T16:49:05.017Z,9.93
2023-03-02T16:51:36.716Z,10.21
2023-03-02T16:54:04.295Z,10.32
2023-03-02T16:56:31.691Z,10.22
2023-03-02T16:59:00.208Z,10.02
2023-03-02T17:01:28.402Z,9.81
2023-03-02T17:03:56.724Z,9.45
2023-03-02T17:06:24.170Z,10.04
2023-03-02T17:08:53.136Z,10.00
2023-03-02T17:11:21.120Z,9.97
2023-03-02T17:13:48.986Z,9.82
2023-03-02T17:16:19.376Z,9.71
2023-03-02T17:18:48.633Z,9.59
2023-03-02T17:21:16.628Z,9.52
2023-03-02T17:23:48.009Z,9.33
2023-03-02T17:26:17.264Z,9.33
2023-03-02T17:28:45.048Z,9.35
2023-03-02T17:31:14.063Z,9.32
2023-03-02T17:33:41.876Z,8.65
2023-03-02T17:36:12.059Z,9.28
2023-03-02T17:38:39.845Z,9.24
2023-03-02T17:41:08.064Z,9.21
2023-03-02T17:43:39.189Z,9.17
2023-03-02T17:46:15.404Z,8.97
2023-03-02T17:48:43.587Z,8.98
2023-03-02T17:51:11.909Z,9.09
2023-03-02T17:53:39.487Z,8.99
2023-03-02T17:56:07.161Z,9.15
2023-03-02T17:58:44.561Z,9.20
2023-03-02T18:01:15.866Z,9.24
2023-03-02T18:03:45.132Z,9.07
2023-03-02T18:06:12.224Z,9.14
2023-03-02T18:08:39.954Z,9.12
2023-03-02T18:11:07.409Z,9.01
2023-03-02T18:13:36.783Z,8.96
2023-03-02T18:16:04.316Z,8.86
2023-03-02T18:18:31.819Z,8.92
2023-03-02T18:21:01.418Z,8.89
2023-03-02T18:23:29.101Z,8.99
2023-03-02T18:25:56.252Z,8.90
2023-03-02T18:28:23.773Z,8.87
2023-03-02T18:30:52.320Z,8.75
2023-03-02T18:33:19.912Z,8.67
2023-03-02T18:35:47.356Z,8.58
2023-03-02T18:38:14.969Z,8.49
2023-03-02T18:40:42.256Z,8.57
2023-03-02T18:43:09.721Z,8.55
2023-03-02T18:45:40.098Z,8.54
2023-03-02T18:48:09.107Z,8.43
2023-03-02T18:50:37.192Z,8.42
2023-03-02T18:53:04.756Z,8.40
2023-03-02T18:55:32.227Z,8.40
2023-03-02T18:57:59.820Z,8.37
2023-03-02T19:00:28.357Z,8.24
2023-03-02T19:02:57.380Z,8.41
2023-03-02T19:05:27.131Z,8.42
2023-03-02T19:07:54.904Z,8.54
2023-03-02T19:10:22.179Z,8.52
2023-03-02T19:12:52.866Z,8.26
2023-03-02T19:15:20.226Z,8.41
2023-03-02T19:17:49.373Z,8.35
2023-03-02T19:20:17.887Z,8.32
2023-03-02T19:22:49.751Z,8.15
2023-03-02T19:25:16.923Z,8.26
2023-03-02T19:27:44.453Z,8.27
2023-03-02T19:30:19.717Z,8.30
2023-03-02T19:32:47.472Z,8.34
2023-03-02T19:35:17.923Z,8.22
2023-03-02T19:37:47.133Z,8.58
2023-03-02T19:40:15.185Z,8.76
2023-03-02T19:42:45.246Z,8.77
2023-03-02T19:45:16.394Z,8.77
2023-03-02T19:47:44.911Z,8.67
2023-03-02T19:50:12.794Z,8.64
2023-03-02T19:52:40.610Z,8.51
2023-03-02T19:55:12.549Z,8.42
2023-03-02T19:57:40.592Z,8.17
2023-03-02T20:00:10.171Z,8.25
2023-03-02T20:02:40.663Z,8.19
2023-03-02T20:05:10.364Z,8.17
2023-03-02T20:07:41.493Z,8.15
2023-03-02T20:10:17.695Z,8.14
2023-03-02T20:12:45.222Z,8.10
2023-03-02T20:15:12.243Z,8.01
2023-03-02T20:17:39.475Z,7.91
2023-03-02T20:20:07.659Z,8.92
2023-03-02T20:22:35.380Z,9.14
2023-03-02T20:25:02.592Z,8.13
2023-03-02T20:27:33.765Z,7.34
2023-03-02T20:30:00.984Z,6.87
2023-03-02T20:32:28.452Z,6.33
2023-03-02T20:34:56.074Z,6.07
2023-03-02T20:37:25.820Z,6.27
2023-03-02T20:39:53.461Z,6.82
2023-03-02T20:42:21.231Z,7.16
2023-03-02T20:44:49.742Z,7.42
2023-03-02T20:47:19.232Z,7.43
2023-03-02T20:49:46.509Z,7.79
2023-03-02T20:52:14.290Z,7.91
2023-03-02T20:54:43.528Z,7.96
2023-03-02T20:57:16.204Z,7.85
2023-03-02T20:59:45.759Z,8.04
2023-03-02T21:02:16.354Z,7.84
2023-03-02T21:04:43.639Z,8.06
2023-03-02T21:07:11.767Z,7.82
2023-03-02T21:09:39.213Z,7.74
2023-03-02T21:12:08.790Z,8.15
2023-03-02T21:14:35.951Z,8.15
2023-03-02T21:17:04.200Z,8.12
2023-03-02T21:19:34.174Z,8.08
2023-03-02T21:22:01.695Z,8.09
2023-03-02T21:24:29.149Z,8.13
2023-03-02T21:26:57.109Z,8.11
2023-03-02T21:29:26.611Z,8.12
2023-03-02T21:31:54.615Z,8.12
2023-03-02T21:34:22.408Z,8.17
2023-03-02T21:36:53.967Z,8.22
2023-03-02T21:39:23.665Z,8.28
2023-03-02T21:41:51.742Z,8.34
2023-03-02T21:44:19.457Z,8.33
2023-03-02T21:46:47.403Z,8.21
2023-03-02T21:49:16.313Z,8.39
2023-03-02T21:51:43.970Z,8.38
2023-03-02T21:54:12.357Z,8.30
2023-03-02T21:56:39.720Z,8.24
2023-03-02T21:59:07.155Z,8.27
2023-03-02T22:01:34.745Z,8.25
2023-03-02T22:04:01.792Z,8.28
2023-03-02T22:06:31.011Z,8.29
2023-03-02T22:08:58.867Z,8.29
2023-03-02T22:11:29.176Z,8.19
2023-03-02T22:13:59.038Z,8.22
2023-03-02T22:16:28.244Z,8.22
2023-03-02T22:18:57.822Z,8.20
2023-03-02T22:21:30.138Z,8.14
2023-03-02T22:24:09.797Z,8.08
2023-03-02T22:26:41.151Z,7.95
2023-03-02T22:29:15.450Z,8.04
2023-03-02T22:31:46.551Z,7.99
2023-03-02T22:34:17.229Z,7.73
2023-03-02T22:36:45.961Z,7.78
2023-03-02T22:39:20.387Z,7.65
2023-03-02T22:41:49.985Z,7.78
2023-03-02T22:44:17.891Z,7.65
2023-03-02T22:46:45.027Z,7.70
2023-03-02T22:49:16.987Z,7.77
2023-03-02T22:51:45.025Z,7.81
2023-03-02T22:54:24.525Z,7.80
2023-03-02T22:56:53.502Z,7.70
2023-03-02T22:59:25.614Z,7.82
2023-03-02T23:01:54.147Z,7.67
2023-03-02T23:04:23.476Z,7.94
2023-03-02T23:06:52.068Z,7.85
2023-03-02T23:09:23.625Z,7.79
2023-03-02T23:11:54.857Z,7.77
2023-03-02T23:14:25.916Z,7.79
2023-03-02T23:16:57.828Z,7.74
2023-03-02T23:19:27.154Z,7.88
2023-03-02T23:21:54.153Z,7.91
2023-03-02T23:24:22.102Z,7.88
2023-03-02T23:26:50.630Z,7.63
2023-03-02T23:29:21.307Z,7.89
2023-03-02T23:31:49.357Z,7.89
2023-03-02T23:34:16.995Z,7.90
2023-03-02T23:36:44.121Z,7.81
2023-03-02T23:39:11.640Z,7.68
2023-03-02T23:41:39.058Z,7.85
2023-03-02T23:44:07.148Z,8.08
2023-03-02T23:46:35.690Z,8.08
2023-03-02T23:49:03.048Z,7.72
2023-03-02T23:51:30.386Z,8.14
2023-03-02T23:53:57.668Z,8.04
2023-03-02T23:56:24.970Z,7.86
2023-03-02T23:58:52.414Z,8.00
